createdAt,value
2023-12-29T00:04:03.393Z,100595.59
2023-12-29T00:09:06.584Z,100591.53
2023-12-29T00:14:10.152Z,100586.50
2023-12-29T00:19:14.937Z,100584.56
2023-12-29T00:24:19.687Z,100580.47
2023-12-29T00:29:25.578Z,100585.06
2023-12-29T00:34:27.879Z,100572.38
2023-12-29T00:39:39.880Z,100552.97
2023-12-29T00:44:42.644Z,100569.63
2023-12-29T00:49:45.862Z,100563.16
2023-12-29T00:54:53.838Z,100561.56
2023-12-29T00:59:58.921Z,100532.50
2023-12-29T01:05:01.193Z,100540.59
2023-12-29T01:10:03.492Z,100548.16
2023-12-29T01:15:08.037Z,100529.50
2023-12-29T01:20:14.104Z,100522.66
2023-12-29T01:25:18.188Z,100530.91
2023-12-29T01:30:20.727Z,100532.72
2023-12-29T01:35:25.611Z,100534.03
2023-12-29T01:40:30.540Z,100544.59
2023-12-29T01:45:40.396Z,100533.09
2023-12-29T01:50:49.133Z,100525.69
2023-12-29T01:55:57.334Z,100529.53
2023-12-29T02:01:02.938Z,100538.00
2023-12-29T02:06:08.220Z,100535.25
2023-12-29T02:11:12.123Z,100544.00
2023-12-29T02:16:36.190Z,100536.94
2023-12-29T02:21:38.177Z,100535.16
2023-12-29T02:26:45.566Z,100537.31
2023-12-29T02:31:53.938Z,100523.00
2023-12-29T02:36:57.180Z,100531.69
2023-12-29T02:41:59.262Z,100523.22
2023-12-29T02:47:01.259Z,100521.41
2023-12-29T02:52:03.359Z,100520.09
2023-12-29T02:57:05.549Z,100515.69
2023-12-29T03:02:07.547Z,100526.44
2023-12-29T03:07:10.930Z,100519.13
2023-12-29T03:12:12.965Z,100517.34
2023-12-29T03:17:15.098Z,100516.00
2023-12-29T03:22:17.269Z,100504.25
2023-12-29T03:27:19.290Z,100511.53
2023-12-29T03:32:21.232Z,100519.44
2023-12-29T03:37:23.273Z,100517.78
2023-12-29T03:42:27.721Z,100504.47
2023-12-29T03:47:31.434Z,100489.03
2023-12-29T03:52:33.515Z,100510.59
2023-12-29T03:57:35.538Z,100502.59
2023-12-29T04:02:38.050Z,100504.13
2023-12-29T04:07:43.069Z,100494.50
2023-12-29T04:12:46.007Z,100505.75
2023-12-29T04:17:48.584Z,100511.41
2023-12-29T04:22:50.640Z,100498.09
2023-12-29T04:27:52.815Z,100486.59
2023-12-29T04:32:54.807Z,100489.72
2023-12-29T04:37:59.436Z,100503.03
2023-12-29T04:43:01.579Z,100504.47
2023-12-29T04:48:04.206Z,100494.53
2023-12-29T04:53:06.387Z,100513.69
2023-12-29T04:58:08.544Z,100505.69
2023-12-29T05:03:10.630Z,100529.25
2023-12-29T05:08:12.642Z,100522.19
2023-12-29T05:13:14.646Z,100509.38
2023-12-29T05:18:16.748Z,100522.56
2023-12-29T05:23:18.735Z,100511.44
2023-12-29T05:28:20.752Z,100523.13
2023-12-29T05:33:22.825Z,100514.44
2023-12-29T05:38:25.051Z,100518.28
2023-12-29T05:43:27.565Z,100516.72
2023-12-29T05:48:29.652Z,100493.38
2023-12-29T05:53:31.730Z,100542.56
2023-12-29T05:58:33.919Z,100518.06
2023-12-29T06:03:36.119Z,100517.94
2023-12-29T06:08:38.283Z,100512.06
2023-12-29T06:13:40.223Z,100507.41
2023-12-29T06:18:42.518Z,100517.81
2023-12-29T06:23:45.141Z,100508.22
2023-12-29T06:28:48.361Z,100504.44
2023-12-29T06:33:50.712Z,100511.84
2023-12-29T06:38:53.765Z,100506.00
2023-12-29T06:43:55.860Z,100522.13
2023-12-29T06:48:58.123Z,100519.16
2023-12-29T06:54:00.968Z,100526.06
2023-12-29T06:59:02.985Z,100545.25
2023-12-29T07:04:05.194Z,100535.06
2023-12-29T07:09:08.834Z,100533.59
2023-12-29T07:14:10.938Z,100530.69
2023-12-29T07:19:13.171Z,100515.97
2023-12-29T07:24:15.355Z,100519.56
2023-12-29T07:29:17.369Z,100520.22
2023-12-29T07:34:19.517Z,100517.84
2023-12-29T07:39:21.624Z,100503.41
2023-12-29T07:44:24.009Z,100526.66
2023-12-29T07:49:27.730Z,100521.06
2023-12-29T07:54:29.857Z,100522.13
2023-12-29T07:59:31.801Z,100523.56
2023-12-29T08:04:34.344Z,100521.53
2023-12-29T08:09:36.469Z,100536.72
2023-12-29T08:14:38.497Z,100504.56
2023-12-29T08:19:41.807Z,100531.00
2023-12-29T08:24:46.489Z,100540.91
2023-12-29T08:43:30.426Z,100536.56
2023-12-29T08:48:32.415Z,100545.16
2023-12-29T08:53:36.675Z,100541.84
2023-12-29T08:58:38.695Z,100525.09
2023-12-29T09:03:40.892Z,100528.22
2023-12-29T09:08:42.903Z,100504.91
2023-12-29T09:13:45.014Z,100540.66
2023-12-29T09:18:47.063Z,100549.78
2023-12-29T09:23:50.238Z,100544.75
2023-12-29T09:28:52.289Z,100546.31
2023-12-29T09:33:54.424Z,100551.56
2023-12-29T09:38:56.505Z,100552.53
2023-12-29T09:44:02.424Z,100563.66
2023-12-29T09:49:06.392Z,100566.28
2023-12-29T09:54:13.294Z,100575.38
2023-12-29T09:59:17.621Z,100573.84
2023-12-29T10:04:19.670Z,100567.97
2023-12-29T10:09:22.851Z,100572.88
2023-12-29T10:15:06.881Z,100563.06
2023-12-29T10:20:27.269Z,100570.81
2023-12-29T10:25:29.803Z,100576.00
2023-12-29T10:30:35.477Z,100565.47
2023-12-29T10:35:41.182Z,100563.78
2023-12-29T10:40:44.300Z,100565.34
2023-12-29T10:45:46.715Z,100578.38
2023-12-29T10:50:49.877Z,100579.09
2023-12-29T10:55:52.036Z,100590.56
2023-12-29T11:00:55.488Z,100576.41
2023-12-29T11:06:03.426Z,100584.94
2023-12-29T11:11:06.910Z,100578.59
2023-12-29T11:16:10.072Z,100576.06
2023-12-29T11:21:13.589Z,100601.59
2023-12-29T11:26:16.317Z,100597.59
2023-12-29T11:31:19.556Z,100597.38
2023-12-29T11:36:33.891Z,100584.41
2023-12-29T11:41:53.970Z,100580.41
2023-12-29T11:46:58.494Z,100579.22
2023-12-29T11:52:00.732Z,100589.88
2023-12-29T11:57:02.766Z,100584.84
2023-12-29T12:02:26.926Z,100583.91
2023-12-29T12:07:29.298Z,100579.00
2023-12-29T12:12:44.720Z,100584.13
2023-12-29T12:17:51.328Z,100566.66
2023-12-29T12:23:02.004Z,100574.28
2023-12-29T12:28:08.902Z,100577.50
2023-12-29T12:33:15.239Z,100568.78
2023-12-29T12:38:25.408Z,100581.00
2023-12-29T12:43:29.054Z,100570.09
2023-12-29T12:48:42.712Z,100553.00
2023-12-29T12:53:48.683Z,100543.66
2023-12-29T12:58:53.096Z,100542.00
2023-12-29T13:03:55.942Z,100557.22
2023-12-29T13:08:58.001Z,100557.47
2023-12-29T13:14:01.959Z,100557.81
2023-12-29T13:19:26.194Z,100538.19
2023-12-29T13:24:30.051Z,100541.91
2023-12-29T13:29:36.536Z,100530.66
2023-12-29T13:34:55.953Z,100553.41
2023-12-29T13:40:05.187Z,100552.94
2023-12-29T13:45:10.679Z,100542.41
2023-12-29T13:50:13.542Z,100529.50
2023-12-29T13:55:25.212Z,100530.19
2023-12-29T14:00:30.186Z,100508.41
2023-12-29T14:06:01.031Z,100508.97
2023-12-29T14:11:14.683Z,100506.56
2023-12-29T14:16:21.147Z,100510.44
2023-12-29T14:21:34.153Z,100514.75
2023-12-29T14:26:38.733Z,100523.00
2023-12-29T14:31:43.853Z,100517.13
2023-12-29T14:36:47.424Z,100509.63
2023-12-29T14:41:49.928Z,100506.16
2023-12-29T14:46:52.162Z,100517.81
2023-12-29T14:51:54.869Z,100510.41
2023-12-29T14:57:08.139Z,100509.59
2023-12-29T15:02:13.858Z,100499.63
2023-12-29T15:07:20.294Z,100505.25
2023-12-29T15:12:22.774Z,100508.38
2023-12-29T15:17:41.251Z,100519.34
2023-12-29T15:22:44.460Z,100497.56
2023-12-29T15:27:47.737Z,100474.47
2023-12-29T15:32:53.851Z,100468.75
2023-12-29T15:37:57.375Z,100469.56
2023-12-29T15:43:00.689Z,100474.34
2023-12-29T15:48:04.631Z,100466.69
2023-12-29T15:53:07.223Z,100457.44
2023-12-29T15:58:10.510Z,100458.75
2023-12-29T16:03:19.001Z,100458.13
2023-12-29T16:08:24.254Z,100450.00
2023-12-29T16:13:27.556Z,100436.28
2023-12-29T16:18:29.666Z,100426.06
2023-12-29T16:23:31.902Z,100420.13
2023-12-29T16:28:34.411Z,100411.75
2023-12-29T16:33:45.032Z,100410.19
2023-12-29T16:38:52.671Z,100410.56
2023-12-29T16:43:54.952Z,100426.47
2023-12-29T16:48:58.344Z,100432.41
2023-12-29T16:54:03.282Z,100443.41
2023-12-29T16:59:07.167Z,100478.91
2023-12-29T17:04:19.395Z,100431.66
2023-12-29T17:09:22.815Z,100454.25
2023-12-29T17:14:32.408Z,100438.13
2023-12-29T17:19:34.610Z,100447.53
2023-12-29T17:24:40.384Z,100430.88
2023-12-29T17:29:43.723Z,100458.84
2023-12-29T17:34:46.879Z,100494.94
2023-12-29T17:39:48.990Z,100507.13
2023-12-29T17:44:55.778Z,100507.81
2023-12-29T17:49:58.079Z,100510.34
2023-12-29T17:55:02.342Z,100516.94
2023-12-29T18:00:06.668Z,100526.34
2023-12-29T18:05:09.878Z,100545.06
2023-12-29T18:10:14.533Z,100525.78
2023-12-29T18:15:18.679Z,100536.06
2023-12-29T18:20:28.074Z,100547.28
2023-12-29T18:25:33.179Z,100574.09
2023-12-29T18:30:35.385Z,100586.34
2023-12-29T18:35:43.467Z,100587.66
2023-12-29T18:40:49.120Z,100586.59
2023-12-29T18:45:51.613Z,100600.72
2023-12-29T18:50:53.656Z,100600.78
2023-12-29T18:55:57.638Z,100599.75
2023-12-29T19:01:04.113Z,100591.78
2023-12-29T19:06:06.680Z,100589.00
2023-12-29T19:11:20.793Z,100588.81
2023-12-29T19:16:28.094Z,100593.59
2023-12-29T19:21:31.208Z,100587.91
2023-12-29T19:26:35.194Z,100594.91
2023-12-29T19:31:40.244Z,100610.59
2023-12-29T19:36:42.248Z,100631.16
2023-12-29T19:41:44.692Z,100631.84
2023-12-29T19:46:47.669Z,100624.50
2023-12-29T19:51:52.609Z,100604.91
2023-12-29T19:57:01.966Z,100610.81
2023-12-29T20:02:05.066Z,100604.84
2023-12-29T20:07:07.282Z,100595.97
2023-12-29T20:12:30.869Z,100592.19
2023-12-29T20:17:39.773Z,100599.88
2023-12-29T20:22:41.715Z,100604.16
2023-12-29T20:27:43.795Z,100618.31
2023-12-29T20:32:47.125Z,100617.59
2023-12-29T20:37:49.980Z,100623.66
2023-12-29T20:42:53.478Z,100629.44
2023-12-29T20:47:55.702Z,100618.00
2023-12-29T20:52:57.854Z,100627.94
2023-12-29T20:58:02.332Z,100617.97
2023-12-29T21:03:08.055Z,100611.66
2023-12-29T21:08:10.468Z,100610.91
2023-12-29T21:13:12.515Z,100608.50
2023-12-29T21:18:14.686Z,100702.19
2023-12-29T21:23:19.969Z,100667.19
2023-12-29T21:28:22.499Z,100674.09
2023-12-29T21:33:29.359Z,100673.91
2023-12-29T21:38:31.368Z,100637.03
2023-12-29T21:43:40.598Z,100649.19
2023-12-29T21:48:42.994Z,100665.28
2023-12-29T21:53:46.361Z,100671.16
2023-12-29T21:58:53.719Z,100666.53
2023-12-29T22:04:00.197Z,100673.25
2023-12-29T22:09:07.348Z,100677.22
2023-12-29T22:14:09.482Z,100680.22
2023-12-29T22:19:17.732Z,100671.25
2023-12-29T22:24:23.126Z,100681.13
2023-12-29T22:29:26.278Z,100687.06
2023-12-29T22:34:35.327Z,100691.59
2023-12-29T22:39:37.556Z,100711.16
2023-12-29T22:44:45.359Z,100710.06
2023-12-29T22:49:50.054Z,100718.59
2023-12-29T22:54:52.135Z,100719.69
2023-12-29T22:59:54.235Z,100711.78
2023-12-29T23:04:56.156Z,100723.38
2023-12-29T23:10:01.055Z,100712.44
2023-12-29T23:15:06.949Z,100726.81
2023-12-29T23:20:09.940Z,100730.25
2023-12-29T23:25:15.477Z,100751.13
2023-12-29T23:30:21.076Z,100751.56
2023-12-29T23:35:24.767Z,100760.38
2023-12-29T23:40:28.105Z,100763.09
2023-12-29T23:45:30.652Z,100763.91
2023-12-29T23:50:35.075Z,100767.28
2023-12-29T23:55:37.092Z,100771.22
